createdAt,value
2022-08-03T00:01:37.283Z,20.65
2022-08-03T00:04:07.969Z,20.64
2022-08-03T00:06:37.172Z,20.55
2022-08-03T00:09:07.214Z,20.48
2022-08-03T00:11:34.994Z,20.46
2022-08-03T00:14:02.422Z,20.48
2022-08-03T00:16:29.660Z,20.47
2022-08-03T00:18:56.983Z,20.39
2022-08-03T00:21:24.174Z,20.38
2022-08-03T00:23:52.862Z,20.24
2022-08-03T00:26:22.117Z,20.27
2022-08-03T00:28:50.224Z,20.22
2022-08-03T00:31:19.720Z,20.24
2022-08-03T00:33:59.117Z,20.22
2022-08-03T00:36:27.105Z,20.13
2022-08-03T00:38:54.447Z,20.20
2022-08-03T00:41:21.765Z,20.26
2022-08-03T00:43:49.016Z,20.30
2022-08-03T00:46:20.800Z,20.29
2022-08-03T00:48:50.299Z,20.28
2022-08-03T00:51:18.957Z,20.35
2022-08-03T00:53:46.767Z,20.37
2022-08-03T00:56:15.846Z,20.35
2022-08-03T00:58:45.118Z,20.35
2022-08-03T01:01:12.917Z,20.42
2022-08-03T01:03:40.901Z,20.40
2022-08-03T01:06:25.659Z,20.29
2022-08-03T01:09:02.771Z,20.34
2022-08-03T01:11:59.844Z,20.28
2022-08-03T01:14:38.219Z,20.15
2022-08-03T01:17:15.234Z,20.09
2022-08-03T01:19:56.563Z,20.10
2022-08-03T01:22:52.298Z,19.97
2022-08-03T01:25:40.449Z,19.92
2022-08-03T01:28:34.505Z,19.97
2022-08-03T01:31:05.676Z,19.88
2022-08-03T01:33:40.985Z,19.89
2022-08-03T01:36:14.661Z,19.92
2022-08-03T01:38:55.651Z,19.86
2022-08-03T01:41:29.476Z,19.81
2022-08-03T01:44:30.182Z,19.80
2022-08-03T01:46:50.071Z,19.75
2022-08-03T01:49:18.349Z,19.83
2022-08-03T01:51:58.647Z,19.85
2022-08-03T01:54:37.189Z,19.85
2022-08-03T01:57:05.287Z,19.97
2022-08-03T01:59:35.970Z,19.93
2022-08-03T02:02:16.024Z,19.95
2022-08-03T02:04:56.591Z,19.93
2022-08-03T02:07:26.265Z,20.07
2022-08-03T02:09:55.739Z,20.29
2022-08-03T02:12:25.766Z,20.46
2022-08-03T02:15:15.403Z,20.62
2022-08-03T02:17:45.995Z,20.61
2022-08-03T02:20:14.113Z,20.60
2022-08-03T02:22:43.270Z,20.49
2022-08-03T02:25:12.446Z,20.43
2022-08-03T02:28:02.128Z,20.20
2022-08-03T02:30:38.608Z,20.09
2022-08-03T02:33:11.192Z,20.05
2022-08-03T02:35:41.279Z,20.12
2022-08-03T02:38:11.566Z,20.12
2022-08-03T02:40:43.461Z,20.01
2022-08-03T02:43:16.603Z,19.99
2022-08-03T02:45:48.102Z,19.97
2022-08-03T02:48:23.545Z,19.99
2022-08-03T02:50:54.297Z,19.89
2022-08-03T02:53:24.158Z,19.87
2022-08-03T02:55:52.661Z,19.86
2022-08-03T02:58:24.078Z,19.77
2022-08-03T03:00:52.341Z,19.79
2022-08-03T03:03:21.293Z,19.79
2022-08-03T03:05:54.740Z,19.78
2022-08-03T03:08:28.817Z,19.74
2022-08-03T03:10:59.997Z,19.36
2022-08-03T03:13:29.312Z,19.79
2022-08-03T03:16:00.538Z,19.85
2022-08-03T03:18:28.460Z,19.76
2022-08-03T03:20:56.586Z,19.78
2022-08-03T03:23:26.470Z,19.80
2022-08-03T03:25:56.392Z,19.79
2022-08-03T03:28:24.970Z,19.76
2022-08-03T03:30:53.448Z,19.85
2022-08-03T03:33:22.754Z,19.99
2022-08-03T03:35:51.926Z,19.98
2022-08-03T03:38:19.999Z,19.97
2022-08-03T03:40:47.747Z,19.92
2022-08-03T03:43:15.460Z,19.97
2022-08-03T03:45:43.656Z,19.87
2022-08-03T03:48:11.441Z,19.91
2022-08-03T03:50:41.839Z,19.98
2022-08-03T03:53:11.171Z,19.84
2022-08-03T03:55:58.953Z,19.95
2022-08-03T03:58:26.246Z,19.87
2022-08-03T04:00:54.197Z,19.96
2022-08-03T04:03:21.483Z,19.98
2022-08-03T04:06:07.486Z,20.16
2022-08-03T04:08:53.671Z,20.22
2022-08-03T04:11:29.102Z,20.20
2022-08-03T04:14:04.071Z,20.25
2022-08-03T04:16:35.299Z,20.30
2022-08-03T04:19:08.330Z,20.25
2022-08-03T04:21:40.659Z,20.45
2022-08-03T04:24:11.197Z,20.58
2022-08-03T04:26:41.812Z,20.61
2022-08-03T04:29:12.125Z,20.71
2022-08-03T04:31:41.077Z,20.71
2022-08-03T04:34:08.715Z,20.84
2022-08-03T04:36:40.133Z,20.96
2022-08-03T04:39:12.335Z,21.00
2022-08-03T04:42:07.693Z,21.14
2022-08-03T04:44:30.604Z,21.11
2022-08-03T04:46:58.843Z,21.24
2022-08-03T04:49:27.550Z,21.29
2022-08-03T04:51:55.043Z,21.46
2022-08-03T04:54:22.202Z,21.49
2022-08-03T04:56:49.501Z,21.67
2022-08-03T04:59:18.014Z,21.79
2022-08-03T05:01:45.470Z,21.96
2022-08-03T05:04:12.977Z,22.06
2022-08-03T05:06:48.073Z,22.21
2022-08-03T05:09:48.920Z,22.35
2022-08-03T05:12:10.655Z,22.51
2022-08-03T05:14:39.040Z,22.68
2022-08-03T05:17:06.890Z,22.87
2022-08-03T05:19:36.399Z,23.02
2022-08-03T05:22:03.675Z,23.15
2022-08-03T05:24:31.206Z,23.28
2022-08-03T05:27:00.230Z,23.38
2022-08-03T05:29:27.497Z,23.48
2022-08-03T05:31:57.639Z,23.64
2022-08-03T05:34:25.563Z,23.74
2022-08-03T05:36:52.764Z,23.85
2022-08-03T05:39:20.560Z,23.79
2022-08-03T05:41:48.396Z,23.92
2022-08-03T05:44:17.931Z,23.89
2022-08-03T05:46:45.555Z,23.87
2022-08-03T05:49:13.065Z,24.01
2022-08-03T05:51:41.237Z,24.14
2022-08-03T05:54:09.100Z,24.21
2022-08-03T05:56:36.543Z,24.35
2022-08-03T05:59:28.780Z,24.52
2022-08-03T06:01:53.301Z,24.58
2022-08-03T06:04:20.854Z,24.63
2022-08-03T06:06:49.191Z,24.74
2022-08-03T06:09:17.826Z,24.82
2022-08-03T06:11:45.038Z,24.88
2022-08-03T06:14:13.281Z,24.96
2022-08-03T06:16:40.793Z,25.10
2022-08-03T06:19:08.888Z,25.18
2022-08-03T06:21:36.091Z,25.23
2022-08-03T06:24:07.440Z,25.21
2022-08-03T06:26:35.698Z,25.48
2022-08-03T06:29:03.928Z,25.58
2022-08-03T06:31:32.902Z,25.72
2022-08-03T06:34:34.056Z,25.75
2022-08-03T06:36:52.502Z,25.89
2022-08-03T06:39:20.712Z,26.01
2022-08-03T06:41:51.781Z,26.14
2022-08-03T06:44:18.787Z,26.29
2022-08-03T06:46:46.023Z,26.38
2022-08-03T06:49:13.744Z,26.37
2022-08-03T06:52:03.249Z,26.52
2022-08-03T06:54:32.931Z,26.49
2022-08-03T06:57:01.156Z,26.58
2022-08-03T07:00:10.294Z,26.68
2022-08-03T07:02:19.058Z,26.78
2022-08-03T07:04:50.614Z,26.90
2022-08-03T07:07:19.555Z,27.05
2022-08-03T07:09:56.979Z,27.13
2022-08-03T07:12:30.140Z,27.15
2022-08-03T07:15:01.244Z,27.29
2022-08-03T07:17:34.096Z,27.43
2022-08-03T07:20:03.886Z,27.53
2022-08-03T07:22:31.393Z,27.42
2022-08-03T07:24:59.292Z,27.54
2022-08-03T07:27:30.491Z,27.63
2022-08-03T07:29:58.980Z,27.67
2022-08-03T07:32:26.849Z,27.68
2022-08-03T07:34:58.442Z,27.74
2022-08-03T07:37:29.041Z,27.81
2022-08-03T07:39:56.374Z,27.82
2022-08-03T07:42:24.174Z,27.91
2022-08-03T07:44:51.543Z,27.92
2022-08-03T07:47:34.936Z,27.99
2022-08-03T07:50:04.738Z,28.06
2022-08-03T07:52:50.773Z,28.18
2022-08-03T07:55:23.010Z,28.22
2022-08-03T07:58:22.040Z,28.25
2022-08-03T08:00:53.174Z,28.21
2022-08-03T08:03:22.175Z,28.34
2022-08-03T08:05:49.591Z,28.35
2022-08-03T08:08:16.877Z,28.41
2022-08-03T08:10:58.273Z,28.43
2022-08-03T08:13:26.196Z,28.49
2022-08-03T08:15:53.237Z,28.54
2022-08-03T08:18:20.794Z,28.49
2022-08-03T08:20:48.044Z,28.66
2022-08-03T08:23:41.709Z,28.72
2022-08-03T08:26:02.923Z,28.75
2022-08-03T08:28:33.644Z,28.68
2022-08-03T08:31:01.870Z,28.80
2022-08-03T08:33:42.474Z,28.97
2022-08-03T08:36:16.827Z,28.64
2022-08-03T08:38:45.235Z,28.84
2022-08-03T08:41:14.551Z,28.97
2022-08-03T08:43:43.256Z,28.98
2022-08-03T08:46:23.737Z,29.04
2022-08-03T08:48:54.620Z,28.96
2022-08-03T08:51:22.786Z,28.67
2022-08-03T08:53:53.930Z,28.84
2022-08-03T08:56:25.596Z,28.89
2022-08-03T08:58:58.184Z,28.98
2022-08-03T09:01:25.708Z,29.22
2022-08-03T09:03:54.281Z,29.18
2022-08-03T09:06:23.020Z,29.19
2022-08-03T09:08:50.355Z,29.31
2022-08-03T09:11:22.219Z,29.30
2022-08-03T09:14:35.297Z,29.24
2022-08-03T09:17:04.072Z,29.19
2022-08-03T09:19:32.431Z,29.34
2022-08-03T09:22:20.526Z,29.45
2022-08-03T09:25:22.953Z,29.54
2022-08-03T09:27:46.858Z,29.68
2022-08-03T09:30:34.705Z,29.77
2022-08-03T09:33:04.777Z,29.66
2022-08-03T09:38:24.273Z,29.91
2022-08-03T09:40:55.912Z,29.95
2022-08-03T09:43:27.612Z,29.92
2022-08-03T09:46:04.331Z,29.93
2022-08-03T09:48:36.933Z,30.02
2022-08-03T09:51:14.227Z,29.98
2022-08-03T09:53:58.564Z,30.02
2022-08-03T09:56:42.748Z,29.99
2022-08-03T09:59:11.905Z,30.17
2022-08-03T10:01:43.031Z,30.12
2022-08-03T10:04:17.200Z,30.20
2022-08-03T10:06:46.518Z,30.21
2022-08-03T10:09:16.582Z,30.37
2022-08-03T10:11:47.006Z,30.45
2022-08-03T10:14:23.605Z,30.45
2022-08-03T10:16:51.036Z,30.16
2022-08-03T10:19:18.265Z,30.05
2022-08-03T10:21:54.078Z,30.02
2022-08-03T10:24:26.491Z,30.23
2022-08-03T10:27:00.500Z,30.11
2022-08-03T10:29:29.661Z,30.27
2022-08-03T10:31:59.560Z,30.35
2022-08-03T10:34:29.467Z,30.71
2022-08-03T10:37:00.274Z,30.77
2022-08-03T10:39:29.037Z,30.67
2022-08-03T10:41:59.784Z,30.54
2022-08-03T10:44:37.708Z,30.44
2022-08-03T10:47:05.733Z,30.35
2022-08-03T10:49:35.335Z,30.39
2022-08-03T10:52:12.974Z,30.38
2022-08-03T10:55:11.111Z,30.34
2022-08-03T10:57:59.100Z,30.37
2022-08-03T11:00:30.422Z,30.35
2022-08-03T11:03:11.359Z,30.42
2022-08-03T11:05:49.508Z,30.28
2022-08-03T11:08:37.781Z,30.82
2022-08-03T11:11:18.033Z,30.96
2022-08-03T11:14:12.978Z,30.76
2022-08-03T11:16:46.815Z,30.73
2022-08-03T11:19:22.769Z,30.79
2022-08-03T11:21:56.699Z,31.03
2022-08-03T11:24:43.815Z,31.11
2022-08-03T11:27:25.315Z,31.20
2022-08-03T11:30:08.058Z,31.44
2022-08-03T11:32:38.546Z,31.40
2022-08-03T11:35:19.117Z,31.12
2022-08-03T11:38:04.330Z,30.91
2022-08-03T11:40:37.290Z,30.87
2022-08-03T11:43:07.645Z,30.81
2022-08-03T11:45:36.669Z,30.73
2022-08-03T11:48:15.854Z,30.51
2022-08-03T11:50:45.677Z,30.31
2022-08-03T11:53:17.214Z,30.24
2022-08-03T11:55:48.989Z,30.41
2022-08-03T11:59:10.904Z,30.50
2022-08-03T12:01:11.545Z,30.78
2022-08-03T12:03:38.646Z,30.97
2022-08-03T12:06:11.639Z,30.94
2022-08-03T12:08:39.793Z,31.15
2022-08-03T12:11:09.086Z,31.08
2022-08-03T12:14:10.683Z,30.87
2022-08-03T12:16:38.610Z,30.57
2022-08-03T12:19:09.292Z,30.65
2022-08-03T12:21:56.941Z,30.83
2022-08-03T12:24:28.447Z,31.02
2022-08-03T12:27:00.089Z,31.12
2022-08-03T12:29:28.143Z,31.14
2022-08-03T12:31:56.319Z,31.05
2022-08-03T12:34:23.945Z,31.08
2022-08-03T12:36:59.810Z,30.89
2022-08-03T12:39:30.979Z,30.67
2022-08-03T12:41:59.137Z,30.60
2022-08-03T12:44:35.032Z,30.76
2022-08-03T12:47:04.665Z,30.95
2022-08-03T12:49:49.476Z,30.95
2022-08-03T12:52:18.568Z,31.10
2022-08-03T12:55:00.361Z,31.55
2022-08-03T12:57:41.984Z,31.75
2022-08-03T13:00:29.653Z,31.76
2022-08-03T13:05:54.954Z,32.04
2022-08-03T13:08:24.215Z,31.89
2022-08-03T13:10:52.372Z,31.31
2022-08-03T13:13:20.841Z,31.41
2022-08-03T13:15:48.392Z,31.42
2022-08-03T13:18:17.462Z,31.49
2022-08-03T13:20:44.902Z,31.62
2022-08-03T13:23:15.461Z,31.82
2022-08-03T13:25:55.946Z,31.67
2022-08-03T13:28:24.309Z,31.72
2022-08-03T13:30:51.725Z,31.53
2022-08-03T13:33:19.233Z,31.28
2022-08-03T13:35:46.733Z,31.02
2022-08-03T13:38:15.397Z,30.93
2022-08-03T13:40:46.067Z,30.78
2022-08-03T13:43:17.216Z,30.69
2022-08-03T13:45:49.488Z,30.81
2022-08-03T13:48:36.219Z,31.18
2022-08-03T13:51:22.274Z,31.14
2022-08-03T13:53:52.675Z,31.42
2022-08-03T13:56:20.148Z,31.61
2022-08-03T13:58:47.794Z,31.84
2022-08-03T14:01:15.056Z,31.94
2022-08-03T14:03:42.339Z,32.02
2022-08-03T14:06:09.767Z,31.72
2022-08-03T14:08:37.127Z,31.62
2022-08-03T14:11:04.480Z,31.57
2022-08-03T14:13:31.541Z,31.77
2022-08-03T14:15:58.977Z,31.59
2022-08-03T14:18:27.812Z,31.63
2022-08-03T14:21:05.823Z,31.64
2022-08-03T14:23:35.398Z,31.78
2022-08-03T14:26:03.159Z,31.85
2022-08-03T14:28:30.533Z,31.99
2022-08-03T14:30:58.365Z,32.08
2022-08-03T14:33:26.355Z,32.19
2022-08-03T14:35:53.859Z,32.23
2022-08-03T14:38:21.697Z,32.32
2022-08-03T14:40:49.053Z,32.28
2022-08-03T14:43:18.742Z,31.92
2022-08-03T14:45:46.113Z,31.78
2022-08-03T14:50:28.728Z,31.64
2022-08-03T14:51:01.552Z,31.65
2022-08-03T14:53:29.587Z,31.78
2022-08-03T14:55:57.514Z,31.86
2022-08-03T14:58:26.807Z,32.00
2022-08-03T15:00:55.305Z,32.14
2022-08-03T15:03:25.141Z,32.22
2022-08-03T15:05:57.196Z,32.22
2022-08-03T15:08:25.779Z,32.17
2022-08-03T15:10:56.455Z,32.07
2022-08-03T15:13:25.624Z,32.05
2022-08-03T15:15:52.828Z,32.13
2022-08-03T15:18:24.920Z,32.12
2022-08-03T15:20:52.349Z,32.15
2022-08-03T15:23:20.219Z,32.19
2022-08-03T15:26:29.356Z,32.17
2022-08-03T15:28:37.315Z,32.26
2022-08-03T15:31:05.903Z,32.26
2022-08-03T15:33:33.340Z,32.28
2022-08-03T15:36:03.524Z,32.05
2022-08-03T15:38:30.822Z,32.09
2022-08-03T15:40:59.133Z,32.02
2022-08-03T15:43:26.587Z,32.04
2022-08-03T15:48:42.151Z,31.78
2022-08-03T15:51:10.379Z,31.86
2022-08-03T15:53:38.481Z,32.01
2022-08-03T15:56:11.324Z,32.28
2022-08-03T15:59:03.758Z,32.74
2022-08-03T16:01:28.954Z,33.18
2022-08-03T16:03:56.385Z,33.55
2022-08-03T16:06:29.833Z,33.91
2022-08-03T16:09:23.728Z,34.16
2022-08-03T16:11:54.952Z,34.46
2022-08-03T16:14:34.253Z,34.51
2022-08-03T16:17:05.778Z,34.69
2022-08-03T16:19:33.481Z,34.66
2022-08-03T16:22:00.936Z,34.67
2022-08-03T16:24:28.497Z,34.46
2022-08-03T16:26:57.060Z,34.41
2022-08-03T16:29:24.389Z,34.11
2022-08-03T16:31:53.032Z,33.66
2022-08-03T16:34:21.111Z,33.08
2022-08-03T16:36:48.424Z,32.70
2022-08-03T16:39:15.858Z,32.32
2022-08-03T16:41:53.635Z,32.03
2022-08-03T16:44:30.805Z,31.75
2022-08-03T16:46:59.495Z,31.53
2022-08-03T16:49:53.957Z,31.40
2022-08-03T16:52:16.486Z,31.13
2022-08-03T16:54:52.686Z,30.94
2022-08-03T16:57:56.748Z,30.77
2022-08-03T17:00:32.911Z,30.62
2022-08-03T17:03:04.311Z,30.47
2022-08-03T17:05:43.801Z,30.25
2022-08-03T17:08:15.968Z,30.18
2022-08-03T17:10:45.212Z,30.02
2022-08-03T17:13:22.110Z,29.81
2022-08-03T17:16:00.886Z,29.31
2022-08-03T17:18:35.020Z,29.53
2022-08-03T17:21:05.958Z,29.51
2022-08-03T17:23:49.939Z,29.29
2022-08-03T17:26:21.867Z,29.22
2022-08-03T17:28:58.393Z,28.93
2022-08-03T17:31:31.081Z,28.78
2022-08-03T17:34:01.727Z,28.63
2022-08-03T17:36:54.006Z,28.35
2022-08-03T17:39:30.760Z,28.35
2022-08-03T17:42:31.217Z,28.18
2022-08-03T17:44:57.266Z,28.01
2022-08-03T17:47:28.971Z,27.87
2022-08-03T17:53:07.249Z,27.70
2022-08-03T17:55:54.824Z,27.62
2022-08-03T17:58:52.577Z,27.45
2022-08-03T18:02:00.809Z,27.35
2022-08-03T18:04:33.794Z,27.22
2022-08-03T18:07:11.159Z,27.11
2022-08-03T18:10:06.764Z,27.10
2022-08-03T18:12:40.501Z,26.93
2022-08-03T18:15:20.862Z,26.92
2022-08-03T18:17:55.077Z,26.82
2022-08-03T18:20:34.199Z,26.75
2022-08-03T18:23:06.760Z,26.68
2022-08-03T18:25:45.213Z,26.66
2022-08-03T18:28:19.131Z,26.52
2022-08-03T18:30:54.899Z,26.39
2022-08-03T18:34:16.705Z,26.38
2022-08-03T18:36:17.431Z,26.25
2022-08-03T18:38:48.142Z,26.16
2022-08-03T18:41:22.031Z,26.08
2022-08-03T18:44:06.882Z,26.02
2022-08-03T18:46:42.094Z,25.88
2022-08-03T18:49:35.656Z,25.68
2022-08-03T18:52:12.368Z,25.52
2022-08-03T18:55:01.061Z,25.43
2022-08-03T18:57:44.538Z,25.32
2022-08-03T19:00:16.648Z,25.16
2022-08-03T19:02:48.853Z,25.03
2022-08-03T19:05:22.766Z,24.96
2022-08-03T19:07:59.801Z,24.80
2022-08-03T19:10:34.265Z,24.63
2022-08-03T19:13:31.114Z,24.60
2022-08-03T19:16:04.742Z,24.48
2022-08-03T19:18:38.939Z,24.52
2022-08-03T19:21:12.754Z,24.50
2022-08-03T19:23:48.891Z,24.43
2022-08-03T19:26:26.696Z,24.29
2022-08-03T19:28:59.182Z,24.25
2022-08-03T19:31:30.913Z,24.24
2022-08-03T19:34:03.301Z,24.19
2022-08-03T19:36:33.517Z,24.08
2022-08-03T19:39:09.013Z,23.93
2022-08-03T19:41:41.955Z,23.79
2022-08-03T19:44:20.191Z,23.65
2022-08-03T19:47:00.874Z,23.54
2022-08-03T19:50:06.283Z,23.49
2022-08-03T19:52:31.294Z,23.52
2022-08-03T19:55:01.182Z,23.34
2022-08-03T19:57:30.334Z,23.32
2022-08-03T19:59:59.719Z,23.23
2022-08-03T20:02:36.505Z,23.09
2022-08-03T20:05:14.792Z,22.99
2022-08-03T20:07:47.618Z,22.94
2022-08-03T20:10:16.710Z,22.93
2022-08-03T20:12:45.486Z,22.79
2022-08-03T20:15:13.247Z,22.82
2022-08-03T20:17:56.309Z,22.74
2022-08-03T20:20:34.937Z,22.70
2022-08-03T20:23:10.371Z,22.56
2022-08-03T20:25:55.758Z,22.59
2022-08-03T20:28:32.277Z,22.56
2022-08-03T20:31:00.467Z,22.44
2022-08-03T20:33:46.065Z,22.53
2022-08-03T20:36:17.886Z,22.50
2022-08-03T20:38:47.902Z,22.35
2022-08-03T20:41:17.257Z,22.35
2022-08-03T20:43:45.080Z,22.32
2022-08-03T20:46:31.987Z,22.32
2022-08-03T20:49:04.917Z,22.14
2022-08-03T20:51:50.471Z,22.19
2022-08-03T20:54:29.705Z,22.09
2022-08-03T20:57:00.488Z,21.95
2022-08-03T20:59:38.490Z,22.06
2022-08-03T21:02:19.805Z,21.99
2022-08-03T21:04:56.913Z,21.93
2022-08-03T21:07:45.924Z,21.91
2022-08-03T21:10:16.667Z,21.89
2022-08-03T21:12:55.448Z,27.86
2022-08-03T21:13:16.905Z,21.90
2022-08-03T21:16:03.333Z,21.69
2022-08-03T21:18:37.361Z,21.61
2022-08-03T21:21:07.040Z,21.56
2022-08-03T21:23:49.166Z,21.55
2022-08-03T21:26:22.850Z,21.51
2022-08-03T21:28:53.554Z,21.37
2022-08-03T21:31:24.217Z,21.41
2022-08-03T21:33:58.336Z,21.35
2022-08-03T21:36:31.342Z,21.31
2022-08-03T21:38:59.391Z,20.91
2022-08-03T21:41:31.295Z,21.18
2022-08-03T21:44:00.366Z,21.16
2022-08-03T21:46:34.298Z,21.07
2022-08-03T21:50:04.434Z,21.06
2022-08-03T21:51:54.181Z,20.83
2022-08-03T21:54:23.841Z,20.95
2022-08-03T21:56:54.530Z,20.93
2022-08-03T21:59:23.849Z,20.93
2022-08-03T22:01:55.238Z,20.91
2022-08-03T22:04:53.422Z,20.36
2022-08-03T22:07:15.131Z,20.85
2022-08-03T22:09:50.145Z,20.81
2022-08-03T22:12:24.330Z,20.70
2022-08-03T22:15:00.773Z,20.72
2022-08-03T22:17:55.884Z,20.69
2022-08-03T22:20:25.308Z,20.68
2022-08-03T22:23:00.880Z,20.66
2022-08-03T22:25:30.908Z,20.65
2022-08-03T22:28:05.191Z,20.02
2022-08-03T22:30:33.395Z,20.60
2022-08-03T22:33:03.198Z,20.54
2022-08-03T22:35:47.224Z,20.51
2022-08-03T22:38:18.111Z,20.45
2022-08-03T22:40:48.928Z,20.39
2022-08-03T22:43:16.778Z,20.46
2022-08-03T22:46:09.714Z,20.44
2022-08-03T22:48:35.823Z,20.42
2022-08-03T22:51:08.173Z,20.45
2022-08-03T22:53:36.386Z,20.41
2022-08-03T22:56:03.951Z,20.39
2022-08-03T22:58:31.081Z,20.35
2022-08-03T23:01:03.336Z,20.24
2022-08-03T23:04:00.712Z,20.33
2022-08-03T23:06:27.116Z,20.16
2022-08-03T23:08:55.213Z,20.27
2022-08-03T23:11:24.497Z,20.24
2022-08-03T23:13:54.362Z,20.15
2022-08-03T23:16:29.088Z,20.10
2022-08-03T23:18:59.731Z,20.08
2022-08-03T23:21:53.327Z,20.05
2022-08-03T23:24:29.508Z,19.96
2022-08-03T23:26:59.030Z,19.95
2022-08-03T23:29:28.860Z,19.91
2022-08-03T23:31:56.588Z,19.62
2022-08-03T23:34:43.385Z,19.85
2022-08-03T23:37:14.720Z,19.71
2022-08-03T23:39:45.744Z,19.66
2022-08-03T23:42:19.069Z,19.68
2022-08-03T23:44:46.784Z,19.70
2022-08-03T23:47:14.508Z,19.67
2022-08-03T23:49:41.895Z,19.62
2022-08-03T23:52:15.873Z,19.52
2022-08-03T23:55:26.270Z,19.56
2022-08-03T23:58:15.548Z,19.46
